Time;durP1;ratioP1;P1;durP2;ratioP2;P2;SDS_P1;SDS_P2;PMS_P1;PMS_P2;Temp;Humidity;BMP_temperature;BMP_pressure;BME280_temperature;BME280_humidity;BME280_pressure;Samples;Min_cycle;Max_cycle;Signal;HPM_P1;HPM_P2
2023/05/14 00:01:19;;;;;;;;;;;;;;;14.15;71.60;101886.13;5061819;28;1890;-73
2023/05/14 00:03:44;;;;;;;;;;;;;;;14.11;70.53;101883.88;5062402;28;1095;-73
2023/05/14 00:06:10;;;;;;;;;;;;;;;14.10;71.76;101888.28;5055390;28;1623;-73
2023/05/14 00:08:35;;;;;;;;;;;;;;;14.07;70.70;101884.16;5065850;28;1258;-73
2023/05/14 00:11:00;;;;;;;;;;;;;;;14.05;71.51;101885.22;5060610;28;1212;-74
2023/05/14 00:13:25;;;;;;;;;;;;;;;14.01;71.43;101883.81;5063604;28;1220;-74
2023/05/14 00:15:51;;;;;;;;;;;;;;;13.97;70.42;101879.78;5064948;28;1179;-72
2023/05/14 00:18:16;;;;;;;;;;;;;;;13.96;71.51;101886.78;5066710;28;1771;-72
2023/05/14 00:20:41;;;;;;;;;;;;;;;13.89;71.11;101877.78;5061928;28;1947;-72
2023/05/14 00:23:06;;;;;;;;;;;;;;;13.87;72.56;101876.22;5055126;28;1591;-75
2023/05/14 00:25:31;;;;;;;;;;;;;;;13.81;71.94;101877.53;5053824;28;1147;-72
2023/05/14 00:27:57;;;;;;;;;;;;;;;13.73;72.16;101875.53;5066954;28;1638;-72
2023/05/14 00:30:22;;;;;;;;;;;;;;;13.73;71.52;101874.72;5065245;28;1286;-75
2023/05/14 00:32:47;;;;;;;;;;;;;;;13.70;73.19;101870.56;5062984;28;1325;-72
2023/05/14 00:35:12;;;;;;;;;;;;;;;13.65;73.08;101862.28;5062337;28;1364;-73
2023/05/14 00:37:38;;;;;;;;;;;;;;;13.60;71.71;101861.81;5066311;28;1293;-72
2023/05/14 00:40:05;;;;;;;;;;;;;;;13.58;71.56;101855.88;5079905;23;1957;-74
2023/05/14 00:42:30;;;;;;;;;;;;;;;13.55;71.73;101856.94;5067302;28;1244;-73
2023/05/14 00:44:56;;;;;;;;;;;;;;;13.50;73.17;101855.66;5071285;28;1451;-72
2023/05/14 00:47:21;;;;;;;;;;;;;;;13.46;72.30;101851.59;5046957;28;1285;-72
2023/05/14 00:49:46;;;;;;;;;;;;;;;13.40;73.31;101854.69;5071643;28;1114;-72
2023/05/14 00:52:11;;;;;;;;;;;;;;;13.36;72.96;101850.66;5070990;28;1206;-73
2023/05/14 00:54:37;;;;;;;;;;;;;;;13.33;72.04;101851.72;5071492;28;1274;-74
2023/05/14 00:57:02;;;;;;;;;;;;;;;13.29;72.57;101845.91;5053137;28;1742;-72
2023/05/14 00:59:27;;;;;;;;;;;;;;;13.26;74.23;101850.56;5070878;28;1122;-73
2023/05/14 01:01:53;;;;;;;;;;;;;;;13.26;73.10;101835.75;5070234;28;1911;-74
2023/05/14 01:04:18;;;;;;;;;;;;;;;13.25;73.41;101834.09;5053523;28;1231;-74
2023/05/14 01:06:52;;;;;;;;;;;;;;;13.20;74.03;101846.59;5050437;28;1320;-72
2023/05/14 01:09:24;;;;;;;;;;;;;;;13.14;73.57;101847.06;5071572;28;1182;-72
2023/05/14 01:11:49;;;;;;;;;;;;;;;13.07;74.08;101851.06;5052326;28;1224;-73
2023/05/14 01:14:27;;;;;;;;;;;;;;;12.99;75.11;101853.44;5067751;28;1072;-72
2023/05/14 01:16:55;;;;;;;;;;;;;;;12.93;75.33;101848.69;5070098;28;1193;-72
2023/05/14 01:19:26;;;;;;;;;;;;;;;12.86;75.94;101842.28;5050319;28;1279;-72
2023/05/14 01:21:51;;;;;;;;;;;;;;;12.85;76.34;101848.44;5070370;28;1882;-73
2023/05/14 01:24:16;;;;;;;;;;;;;;;12.82;76.93;101835.66;5070867;28;1194;-73
2023/05/14 01:26:42;;;;;;;;;;;;;;;12.77;77.56;101839.41;5048867;28;1244;-72
2023/05/14 01:29:07;;;;;;;;;;;;;;;12.75;75.99;101846.53;5052615;28;1230;-71
2023/05/14 01:31:35;;;;;;;;;;;;;;;12.73;75.66;101837.16;5068578;28;1244;-72
2023/05/14 01:34:01;;;;;;;;;;;;;;;12.70;77.26;101838.22;5050961;28;1416;-72
2023/05/14 01:36:27;;;;;;;;;;;;;;;12.68;76.18;101834.91;5069333;28;1279;-72
2023/05/14 01:38:54;;;;;;;;;;;;;;;12.65;77.76;101839.50;5069821;28;1181;-72
2023/05/14 01:41:20;;;;;;;;;;;;;;;12.60;78.87;101834.63;5066991;28;1953;-72
2023/05/14 01:43:46;;;;;;;;;;;;;;;12.58;76.78;101833.94;5069280;28;1180;-72
2023/05/14 01:46:11;;;;;;;;;;;;;;;12.59;77.05;101830.38;5070183;28;1502;-73
2023/05/14 01:48:36;;;;;;;;;;;;;;;12.55;78.28;101828.94;5067265;28;1233;-71
2023/05/14 01:51:02;;;;;;;;;;;;;;;12.54;78.04;101821.25;5068646;28;1243;-72
2023/05/14 01:53:27;;;;;;;;;;;;;;;12.50;78.06;101825.84;5068124;28;1223;-72
2023/05/14 01:55:52;;;;;;;;;;;;;;;12.46;78.57;101832.22;5070255;28;989;-72
2023/05/14 01:58:18;;;;;;;;;;;;;;;12.42;79.08;101828.19;5048035;28;1510;-72
2023/05/14 02:00:43;;;;;;;;;;;;;;;12.38;78.72;101821.53;5069087;28;1898;-73
2023/05/14 02:03:09;;;;;;;;;;;;;;;12.36;78.26;101823.44;5069378;28;1105;-72
2023/05/14 02:05:34;;;;;;;;;;;;;;;12.36;78.85;101815.63;5062335;28;1513;-73
2023/05/14 02:07:59;;;;;;;;;;;;;;;12.34;78.51;101822.72;5069728;28;1086;-72
2023/05/14 02:10:25;;;;;;;;;;;;;;;12.31;79.62;101817.75;5059332;28;1628;-72
2023/05/14 02:12:50;;;;;;;;;;;;;;;12.26;78.90;101817.25;5066285;28;1193;-73
2023/05/14 02:15:15;;;;;;;;;;;;;;;12.22;79.05;101816.66;5048149;28;1241;-72
2023/05/14 02:17:40;;;;;;;;;;;;;;;12.18;80.40;101825.59;5051468;28;1290;-72
2023/05/14 02:20:06;;;;;;;;;;;;;;;12.14;79.67;101819.78;5048376;28;1963;-72
2023/05/14 02:22:31;;;;;;;;;;;;;;;12.11;80.95;101814.81;5069037;28;1084;-73
2023/05/14 02:24:56;;;;;;;;;;;;;;;12.05;80.58;101812.66;5070016;28;1722;-72
2023/05/14 02:27:22;;;;;;;;;;;;;;;12.02;82.76;101809.44;5069571;28;1244;-72
2023/05/14 02:29:47;;;;;;;;;;;;;;;11.99;81.07;101820.91;5069031;28;1228;-72
2023/05/14 02:32:12;;;;;;;;;;;;;;;11.98;81.10;101819.22;5069396;28;1123;-72
2023/05/14 02:34:37;;;;;;;;;;;;;;;11.97;80.75;101812.38;5048766;28;1338;-72
2023/05/14 02:37:03;;;;;;;;;;;;;;;11.95;81.63;101817.69;5070093;28;1125;-72
2023/05/14 02:39:28;;;;;;;;;;;;;;;11.93;82.73;101810.94;5067312;28;1197;-71
2023/05/14 02:41:53;;;;;;;;;;;;;;;11.89;81.96;101814.69;5049919;28;1925;-73
2023/05/14 02:44:18;;;;;;;;;;;;;;;11.87;80.62;101811.34;5068493;28;1232;-72
2023/05/14 02:46:44;;;;;;;;;;;;;;;11.88;80.41;101806.06;5045261;28;1292;-74
2023/05/14 02:49:09;;;;;;;;;;;;;;;11.90;80.62;101800.75;5067824;28;1549;-72
2023/05/14 02:51:35;;;;;;;;;;;;;;;11.87;80.91;101800.97;5064673;28;1578;-73
2023/05/14 02:54:00;;;;;;;;;;;;;;;11.85;82.66;101797.66;5067791;28;1240;-74
2023/05/14 02:56:25;;;;;;;;;;;;;;;11.78;81.76;101804.19;5068025;28;1149;-72
2023/05/14 02:58:50;;;;;;;;;;;;;;;11.78;81.63;101804.19;5047099;28;1437;-73
2023/05/14 03:01:17;;;;;;;;;;;;;;;11.77;81.28;101799.94;5068756;28;1898;-72
2023/05/14 03:03:42;;;;;;;;;;;;;;;11.76;81.25;101800.91;5067854;28;1249;-72
2023/05/14 03:06:08;;;;;;;;;;;;;;;11.74;81.09;101802.75;5050799;28;1271;-72
2023/05/14 03:08:33;;;;;;;;;;;;;;;11.68;81.51;101802.25;5049932;28;1184;-74
2023/05/14 03:10:58;;;;;;;;;;;;;;;11.67;81.79;101794.56;5042466;28;1232;-72
2023/05/14 03:13:23;;;;;;;;;;;;;;;11.64;82.37;101800.81;5067374;28;1153;-74
2023/05/14 03:15:53;;;;;;;;;;;;;;;11.62;81.97;101801.84;5049684;28;1321;-72
2023/05/14 03:18:18;;;;;;;;;;;;;;;11.62;81.68;101794.88;5061554;28;1311;-72
2023/05/14 03:20:43;;;;;;;;;;;;;;;11.58;81.85;101797.78;5068315;28;1960;-73
2023/05/14 03:23:09;;;;;;;;;;;;;;;11.56;81.67;101797.91;5061556;28;1158;-74
2023/05/14 03:25:34;;;;;;;;;;;;;;;11.55;81.61;101796.25;5066618;28;1692;-74
2023/05/14 03:27:59;;;;;;;;;;;;;;;11.52;83.15;101791.25;5068666;28;952;-73
2023/05/14 03:30:24;;;;;;;;;;;;;;;11.48;84.42;101789.00;5067725;28;1316;-72
2023/05/14 03:32:50;;;;;;;;;;;;;;;11.46;81.96;101789.09;5067723;28;1315;-72
2023/05/14 03:35:15;;;;;;;;;;;;;;;11.42;84.90;101779.88;5048353;28;1247;-73
2023/05/14 03:37:40;;;;;;;;;;;;;;;11.40;82.62;101789.53;5047392;28;1182;-72
2023/05/14 03:40:06;;;;;;;;;;;;;;;11.38;83.62;101788.81;5060864;28;1906;-72
2023/05/14 03:42:31;;;;;;;;;;;;;;;11.35;84.09;101786.41;5061277;28;1295;-73
2023/05/14 03:44:56;;;;;;;;;;;;;;;11.34;83.10;101789.97;5048493;28;1321;-72
2023/05/14 03:47:21;;;;;;;;;;;;;;;11.34;82.68;101788.19;5050609;28;1243;-73
2023/05/14 03:49:46;;;;;;;;;;;;;;;11.33;83.23;101786.53;5067280;28;1262;-73
2023/05/14 03:52:12;;;;;;;;;;;;;;;11.33;83.92;101788.31;5062734;28;1072;-72
2023/05/14 03:54:37;;;;;;;;;;;;;;;11.30;83.26;101785.94;5048500;28;1307;-73
2023/05/14 03:57:03;;;;;;;;;;;;;;;11.30;83.37;101780.75;5067947;28;1392;-75
2023/05/14 03:59:28;;;;;;;;;;;;;;;11.27;83.20;101780.94;5049300;28;1586;-73
2023/05/14 04:01:53;;;;;;;;;;;;;;;11.25;84.58;101780.22;5049342;28;1887;-71
2023/05/14 04:04:18;;;;;;;;;;;;;;;11.19;85.24;101778.06;5065773;28;1501;-72
2023/05/14 04:06:44;;;;;;;;;;;;;;;11.15;83.95;101778.25;5067620;28;992;-71
2023/05/14 04:09:09;;;;;;;;;;;;;;;11.13;84.90;101774.94;5066135;28;1150;-72
2023/05/14 04:11:35;;;;;;;;;;;;;;;11.11;85.07;101776.78;5044536;28;1407;-73
2023/05/14 04:14:00;;;;;;;;;;;;;;;11.09;84.69;101778.66;5066949;28;1288;-72
2023/05/14 04:16:25;;;;;;;;;;;;;;;11.08;84.61;101777.00;5067761;28;1287;-72
2023/05/14 04:18:50;;;;;;;;;;;;;;;11.08;85.01;101782.22;5066201;28;1252;-72
2023/05/14 04:21:15;;;;;;;;;;;;;;;11.04;86.63;101785.94;5060146;28;1959;-72
2023/05/14 04:23:41;;;;;;;;;;;;;;;10.97;87.37;101779.50;5048028;28;1447;-73
2023/05/14 04:26:06;;;;;;;;;;;;;;;10.95;85.70;101786.56;5068083;28;1229;-72
2023/05/14 04:28:31;;;;;;;;;;;;;;;10.91;87.30;101779.94;5047586;28;1327;-73
2023/05/14 04:30:57;;;;;;;;;;;;;;;10.89;86.21;101789.56;5064042;28;1440;-72
2023/05/14 04:33:22;;;;;;;;;;;;;;;10.88;86.75;101790.50;5066097;28;1041;-72
2023/05/14 04:35:47;;;;;;;;;;;;;;;10.84;87.33;101783.88;5066567;28;1589;-73
2023/05/14 04:38:13;;;;;;;;;;;;;;;10.81;86.22;101784.06;5061081;28;1245;-72
2023/05/14 04:40:38;;;;;;;;;;;;;;;10.80;85.56;101778.06;5046825;28;1959;-73
2023/05/14 04:43:03;;;;;;;;;;;;;;;10.81;87.21;101784.06;5067123;28;1337;-72
2023/05/14 04:45:28;;;;;;;;;;;;;;;10.78;89.11;101784.25;5067540;28;1207;-72
2023/05/14 04:47:54;;;;;;;;;;;;;;;10.81;86.79;101784.06;5067217;28;1091;-73
2023/05/14 04:50:19;;;;;;;;;;;;;;;10.82;87.39;101775.34;5062373;28;1431;-72
2023/05/14 04:52:44;;;;;;;;;;;;;;;10.83;87.42;101777.00;5066906;28;1419;-74
2023/05/14 04:55:10;;;;;;;;;;;;;;;10.82;89.03;101776.16;5060052;28;1095;-72
2023/05/14 04:57:35;;;;;;;;;;;;;;;10.83;88.39;101783.03;5061727;28;1154;-73
2023/05/14 05:00:00;;;;;;;;;;;;;;;10.82;88.82;101776.16;5048407;28;1323;-72
2023/05/14 05:02:26;;;;;;;;;;;;;;;10.82;88.81;101775.34;5066173;28;1894;-72
2023/05/14 05:04:51;;;;;;;;;;;;;;;10.82;87.54;101770.16;5061129;28;1146;-69
2023/05/14 05:07:16;;;;;;;;;;;;;;;10.85;88.81;101769.97;5067378;28;1105;-72
2023/05/14 05:09:42;;;;;;;;;;;;;;;10.91;87.94;101774.75;5066343;28;1032;-72
2023/05/14 05:12:07;;;;;;;;;;;;;;;10.95;90.22;101778.75;5067026;28;1049;-72
2023/05/14 05:14:32;;;;;;;;;;;;;;;10.93;88.86;101778.03;5062922;28;1063;-72
2023/05/14 05:16:57;;;;;;;;;;;;;;;10.95;88.98;101781.34;5063907;28;921;-72
2023/05/14 05:19:23;;;;;;;;;;;;;;;10.97;89.45;101782.09;5065782;28;1330;-71
2023/05/14 05:21:48;;;;;;;;;;;;;;;11.02;89.80;101782.63;5046062;28;1961;-71
2023/05/14 05:24:13;;;;;;;;;;;;;;;11.05;88.62;101777.22;5065023;28;1260;-72
2023/05/14 05:26:39;;;;;;;;;;;;;;;11.06;88.49;101789.25;5071068;28;1033;-73
2023/05/14 05:29:06;;;;;;;;;;;;;;;11.09;89.92;101793.41;5067261;28;1452;-72
2023/05/14 05:31:32;;;;;;;;;;;;;;;11.10;89.31;101785.50;5069369;28;1407;-72
2023/05/14 05:33:58;;;;;;;;;;;;;;;11.10;88.83;101798.50;5065970;28;1213;-73
2023/05/14 05:36:23;;;;;;;;;;;;;;;11.13;89.81;101789.69;5068899;28;1414;-75
2023/05/14 05:38:48;;;;;;;;;;;;;;;11.13;89.22;101800.91;5049630;28;1271;-72
2023/05/14 05:41:14;;;;;;;;;;;;;;;11.15;89.45;101793.81;5067750;28;1956;-72
2023/05/14 05:43:39;;;;;;;;;;;;;;;11.16;90.28;101795.47;5052664;28;1155;-72
2023/05/14 05:46:05;;;;;;;;;;;;;;;11.15;90.44;101791.22;5044683;28;1232;-71
2023/05/14 05:48:30;;;;;;;;;;;;;;;11.16;91.19;101795.47;5070804;28;1270;-71
2023/05/14 05:50:56;;;;;;;;;;;;;;;11.19;89.77;101804.03;5051467;28;1397;-72
2023/05/14 05:53:21;;;;;;;;;;;;;;;11.21;90.77;101802.13;5070910;28;1335;-71
2023/05/14 05:55:46;;;;;;;;;;;;;;;11.26;90.85;101802.66;5069596;28;1196;-73
2023/05/14 05:58:14;;;;;;;;;;;;;;;11.33;89.70;101798.69;5069730;28;1170;-72
2023/05/14 06:00:40;;;;;;;;;;;;;;;11.36;91.17;101806.28;5067761;28;1959;-72
2023/05/14 06:03:05;;;;;;;;;;;;;;;11.39;92.79;101806.88;5066264;28;1213;-72
2023/05/14 06:05:30;;;;;;;;;;;;;;;11.46;90.78;101804.69;5069979;28;1173;-72
2023/05/14 06:07:55;;;;;;;;;;;;;;;11.52;92.32;101795.63;5070108;28;1103;-72
2023/05/14 06:10:20;;;;;;;;;;;;;;;11.52;92.68;101806.84;5064378;28;1209;-72
2023/05/14 06:12:46;;;;;;;;;;;;;;;11.54;92.23;101799.81;5065847;28;1074;-72
2023/05/14 06:15:11;;;;;;;;;;;;;;;11.60;93.36;101801.97;5066255;28;1355;-71
2023/05/14 06:17:37;;;;;;;;;;;;;;;11.69;91.62;101810.88;5062386;28;1287;-72
2023/05/14 06:20:04;;;;;;;;;;;;;;;11.77;93.06;101805.16;5069816;28;1142;-72
2023/05/14 06:22:29;;;;;;;;;;;;;;;11.85;91.67;101803.69;5068574;28;1994;-72
2023/05/14 06:24:54;;;;;;;;;;;;;;;11.94;91.67;101817.81;5069110;28;1264;-73
2023/05/14 06:27:20;;;;;;;;;;;;;;;12.00;91.57;101812.16;5068584;28;1256;-72
2023/05/14 06:29:45;;;;;;;;;;;;;;;12.05;92.54;101804.88;5069840;28;1162;-73
2023/05/14 06:32:14;;;;;;;;;;;;;;;12.09;92.23;101816.69;5069362;28;981;-70
2023/05/14 06:34:39;;;;;;;;;;;;;;;12.13;90.67;101818.13;5046220;28;1243;-71
2023/05/14 06:37:05;;;;;;;;;;;;;;;12.19;91.83;101812.47;5068646;28;1107;-70
2023/05/14 06:39:31;;;;;;;;;;;;;;;12.24;90.93;101809.56;5051240;28;1558;-72
2023/05/14 06:41:56;;;;;;;;;;;;;;;12.29;91.85;101812.66;5067122;28;1958;-70
2023/05/14 06:44:21;;;;;;;;;;;;;;;12.40;90.80;101819.69;5068563;28;1099;-71
2023/05/14 06:46:46;;;;;;;;;;;;;;;12.46;90.67;101814.03;5067720;28;1217;-72
2023/05/14 06:49:11;;;;;;;;;;;;;;;12.50;91.13;101818.03;5051450;28;1230;-72
2023/05/14 06:51:37;;;;;;;;;;;;;;;12.58;90.86;101823.53;5068490;28;1233;-71
2023/05/14 06:54:03;;;;;;;;;;;;;;;12.63;89.63;101818.81;5068404;28;1284;-71
2023/05/14 06:56:28;;;;;;;;;;;;;;;12.68;89.50;101803.69;5046068;28;1233;-71
2023/05/14 06:58:53;;;;;;;;;;;;;;;12.74;90.54;101813.63;5067964;28;1115;-71
2023/05/14 07:01:18;;;;;;;;;;;;;;;12.80;90.27;101811.50;5066782;28;1956;-71
2023/05/14 07:03:43;;;;;;;;;;;;;;;12.82;89.72;101814.81;5066943;28;1546;-71
2023/05/14 07:06:09;;;;;;;;;;;;;;;12.87;89.45;101815.31;5067554;28;1165;-71
2023/05/14 07:08:34;;;;;;;;;;;;;;;12.93;89.59;101820.06;5067193;28;1177;-71
2023/05/14 07:11:00;;;;;;;;;;;;;;;12.98;89.09;101807.50;5049479;28;1285;-71
2023/05/14 07:13:26;;;;;;;;;;;;;;;13.03;89.11;101810.59;5068214;28;1037;-70
2023/05/14 07:15:54;;;;;;;;;;;;;;;13.06;88.94;101812.97;5050487;28;1279;-71
2023/05/14 07:18:19;;;;;;;;;;;;;;;13.06;88.70;101806.91;5068237;28;1197;-71
2023/05/14 07:20:44;;;;;;;;;;;;;;;13.09;88.40;101812.72;5067472;28;1977;-71
2023/05/14 07:23:10;;;;;;;;;;;;;;;13.11;88.58;101810.84;5041888;28;1356;-71
2023/05/14 07:25:35;;;;;;;;;;;;;;;13.17;88.20;101810.34;5064376;28;1269;-72
2023/05/14 07:28:00;;;;;;;;;;;;;;;13.24;89.38;101811.56;5068620;28;1103;-71
2023/05/14 07:30:25;;;;;;;;;;;;;;;13.31;89.58;101805.91;5048327;28;1245;-70
2023/05/14 07:32:50;;;;;;;;;;;;;;;13.35;88.94;101802.09;5067996;28;1208;-70
2023/05/14 07:35:16;;;;;;;;;;;;;;;13.28;88.69;101802.56;5062324;28;1403;-71
2023/05/14 07:37:41;;;;;;;;;;;;;;;13.34;88.15;101801.28;5049501;28;1335;-71
2023/05/14 07:40:07;;;;;;;;;;;;;;;13.37;88.87;101800.22;5060450;28;1181;-71
2023/05/14 07:42:33;;;;;;;;;;;;;;;13.40;88.05;101802.56;5060419;28;1961;-71
2023/05/14 07:44:58;;;;;;;;;;;;;;;13.43;88.36;101804.97;5061449;28;1220;-70
2023/05/14 07:47:23;;;;;;;;;;;;;;;13.46;88.39;101804.69;5064582;28;1244;-71
2023/05/14 07:49:52;;;;;;;;;;;;;;;13.45;88.72;101800.44;5066014;28;1237;-73
2023/05/14 07:52:17;;;;;;;;;;;;;;;13.50;88.98;101795.69;5063597;28;1391;-71
2023/05/14 07:54:43;;;;;;;;;;;;;;;13.56;88.76;101787.41;5062656;28;1270;-71
2023/05/14 07:57:08;;;;;;;;;;;;;;;13.64;87.91;101792.81;5064536;28;1455;-70
2023/05/14 07:59:33;;;;;;;;;;;;;;;13.77;87.82;101788.31;5064523;28;1277;-74
2023/05/14 08:01:58;;;;;;;;;;;;;;;13.89;87.72;101790.91;5062349;28;1910;-72
2023/05/14 08:04:24;;;;;;;;;;;;;;;14.02;87.43;101788.94;5059980;28;1213;-71
2023/05/14 08:06:49;;;;;;;;;;;;;;;14.08;85.95;101783.22;5060211;28;1237;-72
2023/05/14 08:09:14;;;;;;;;;;;;;;;14.17;85.85;101784.28;5058936;28;1244;-70
2023/05/14 08:11:40;;;;;;;;;;;;;;;14.25;85.71;101787.91;5067680;28;1221;-72
2023/05/14 08:14:05;;;;;;;;;;;;;;;14.37;86.66;101790.47;5066307;28;1019;-72
2023/05/14 08:16:30;;;;;;;;;;;;;;;14.49;86.45;101794.69;5046101;28;1571;-73
2023/05/14 08:18:55;;;;;;;;;;;;;;;14.60;85.30;101794.63;5059822;28;1228;-71
2023/05/14 08:21:21;;;;;;;;;;;;;;;14.66;84.13;101791.50;5062190;28;2195;-71
2023/05/14 08:23:46;;;;;;;;;;;;;;;14.73;84.68;101782.19;5057646;28;1283;-73
2023/05/14 08:26:11;;;;;;;;;;;;;;;14.86;85.28;101784.63;5066571;28;1259;-73
2023/05/14 08:28:36;;;;;;;;;;;;;;;15.01;84.52;101780.69;5067158;28;1209;-72
2023/05/14 08:31:02;;;;;;;;;;;;;;;15.13;83.99;101784.06;5067506;28;1224;-71
2023/05/14 08:33:27;;;;;;;;;;;;;;;15.25;84.02;101772.53;5062191;28;1201;-72
2023/05/14 08:35:53;;;;;;;;;;;;;;;15.39;82.46;101784.44;5058369;28;1271;-71
2023/05/14 08:38:18;;;;;;;;;;;;;;;15.52;81.93;101784.19;5046765;28;1227;-72
2023/05/14 08:41:04;;;;;;;;;;;;;;;15.64;80.23;101793.59;5038203;28;1948;-72
2023/05/14 08:43:49;;;;;;;;;;;;;;;15.72;80.56;101796.38;5067118;28;1201;-72
2023/05/14 08:46:16;;;;;;;;;;;;;;;15.87;79.99;101779.31;5061699;28;1346;-75
2023/05/14 08:48:41;;;;;;;;;;;;;;;15.99;79.11;101787.03;5039797;28;1392;-72
2023/05/14 08:51:07;;;;;;;;;;;;;;;15.97;76.70;101786.38;5036392;28;1626;-73
2023/05/14 08:53:32;;;;;;;;;;;;;;;15.95;78.64;101788.31;5065331;28;1205;-72
2023/05/14 08:55:59;;;;;;;;;;;;;;;15.98;78.69;101783.59;5046439;28;1330;-72
2023/05/14 08:58:26;;;;;;;;;;;;;;;16.08;76.59;101787.06;5046314;28;1534;-72
2023/05/14 09:00:52;;;;;;;;;;;;;;;16.10;76.37;101784.28;5066172;28;1889;-72
2023/05/14 09:03:18;;;;;;;;;;;;;;;16.15;77.50;101782.09;5043876;28;1314;-71
2023/05/14 09:05:44;;;;;;;;;;;;;;;16.25;77.47;101775.06;5042537;28;1441;-73
2023/05/14 09:08:09;;;;;;;;;;;;;;;16.33;76.50;101775.19;5061871;28;1255;-72
2023/05/14 09:10:35;;;;;;;;;;;;;;;16.39;76.37;101771.19;5068188;28;1221;-72
2023/05/14 09:13:00;;;;;;;;;;;;;;;16.45;76.93;101768.81;5063868;28;1237;-71
2023/05/14 09:15:26;;;;;;;;;;;;;;;16.55;76.88;101775.84;5069023;28;1232;-72
2023/05/14 09:17:52;;;;;;;;;;;;;;;16.56;75.42;101764.41;5069792;28;1546;-72
2023/05/14 09:20:17;;;;;;;;;;;;;;;16.59;73.89;101764.13;5070291;28;1943;-72
2023/05/14 09:22:43;;;;;;;;;;;;;;;16.73;75.51;101768.94;5064727;28;1270;-72
2023/05/14 09:25:10;;;;;;;;;;;;;;;16.75;75.64;101764.41;5066875;28;1300;-73
2023/05/14 09:27:36;;;;;;;;;;;;;;;16.85;73.70;101770.41;5069851;28;1251;-72
2023/05/14 09:30:08;;;;;;;;;;;;;;;16.89;72.40;101756.06;5065555;28;1095;-72
2023/05/14 09:32:42;;;;;;;;;;;;;;;16.85;72.31;101754.69;5066558;28;1398;-73
2023/05/14 09:35:11;;;;;;;;;;;;;;;16.94;73.22;101764.34;5045812;28;1408;-72
2023/05/14 09:37:36;;;;;;;;;;;;;;;16.99;74.63;101756.88;5066426;28;1562;-72
2023/05/14 09:40:05;;;;;;;;;;;;;;;17.12;75.10;101755.72;5064372;28;1387;-73
2023/05/14 09:42:30;;;;;;;;;;;;;;;17.21;74.21;101750.44;5042348;28;1914;-72
2023/05/14 09:44:55;;;;;;;;;;;;;;;17.30;72.48;101755.75;5062966;28;1367;-73
2023/05/14 09:47:21;;;;;;;;;;;;;;;17.36;74.06;101753.38;5070324;28;1533;-72
2023/05/14 09:49:47;;;;;;;;;;;;;;;17.43;72.25;101751.84;5066543;28;1145;-72
2023/05/14 09:52:12;;;;;;;;;;;;;;;17.51;72.88;101745.84;5067174;28;1256;-72
2023/05/14 09:54:38;;;;;;;;;;;;;;;17.61;72.23;101743.16;5067116;28;1276;-73
2023/05/14 09:57:03;;;;;;;;;;;;;;;17.68;70.72;101736.34;5069288;28;1172;-73
2023/05/14 09:59:28;;;;;;;;;;;;;;;17.65;70.01;101742.69;5067360;28;1244;-73
2023/05/14 10:01:54;;;;;;;;;;;;;;;17.71;71.48;101733.41;5069366;28;1933;-72
2023/05/14 10:04:19;;;;;;;;;;;;;;;17.79;70.74;101728.28;5040865;28;1551;-72
2023/05/14 10:06:47;;;;;;;;;;;;;;;17.83;71.53;101740.09;5061194;28;1282;-72
2023/05/14 10:09:13;;;;;;;;;;;;;;;17.86;69.91;101739.81;5064851;28;1166;-72
2023/05/14 10:11:41;;;;;;;;;;;;;;;17.92;70.36;101739.22;5068775;28;1200;-72
2023/05/14 10:14:08;;;;;;;;;;;;;;;17.95;69.00;101728.41;5043444;28;1409;-72
2023/05/14 10:16:36;;;;;;;;;;;;;;;18.04;65.49;101731.91;5065630;28;1062;-73
2023/05/14 10:19:09;;;;;;;;;;;;;;;18.13;67.39;101735.44;5038603;28;1349;-74
2023/05/14 10:21:35;;;;;;;;;;;;;;;18.23;69.34;101730.91;5044910;28;1914;-72
2023/05/14 10:24:03;;;;;;;;;;;;;;;18.38;70.55;101724.13;5064455;28;1253;-71
2023/05/14 10:26:28;;;;;;;;;;;;;;;18.57;70.35;101723.09;5062258;28;1333;-74
2023/05/14 10:28:54;;;;;;;;;;;;;;;18.66;67.68;101721.34;5067092;28;1369;-74
2023/05/14 10:31:21;;;;;;;;;;;;;;;18.66;63.17;101716.91;5044083;28;1691;-72
2023/05/14 10:33:49;;;;;;;;;;;;;;;18.66;64.69;101716.09;5043933;28;1608;-75
2023/05/14 10:36:14;;;;;;;;;;;;;;;18.68;64.26;101719.41;5050876;28;1234;-73
2023/05/14 10:38:40;;;;;;;;;;;;;;;18.69;64.00;101710.53;5048772;28;1286;-72
2023/05/14 10:41:16;;;;;;;;;;;;;;;18.77;64.47;101713.22;5068275;28;1902;-75
2023/05/14 10:43:42;;;;;;;;;;;;;;;18.81;64.13;101709.31;5060258;28;1285;-73
2023/05/14 10:46:08;;;;;;;;;;;;;;;18.89;62.05;101711.97;5066266;28;1229;-72
2023/05/14 10:48:35;;;;;;;;;;;;;;;18.95;62.49;101706.06;5067765;28;1189;-73
2023/05/14 10:51:03;;;;;;;;;;;;;;;19.01;61.82;101705.44;5067574;28;1088;-73
2023/05/14 10:53:32;;;;;;;;;;;;;;;19.10;64.27;101703.66;5062505;28;1111;-73
2023/05/14 10:55:57;;;;;;;;;;;;;;;19.22;64.52;101701.56;5046968;28;1296;-72
2023/05/14 10:58:22;;;;;;;;;;;;;;;19.36;63.39;101695.66;5064109;28;1259;-72
2023/05/14 11:00:48;;;;;;;;;;;;;;;19.42;61.77;101705.53;5055037;28;1918;-73
2023/05/14 11:03:15;;;;;;;;;;;;;;;19.45;60.71;101697.34;5068073;28;1391;-73
2023/05/14 11:05:40;;;;;;;;;;;;;;;19.50;62.84;101695.06;5068591;28;1598;-73
2023/05/14 11:08:06;;;;;;;;;;;;;;;19.59;62.16;101699.34;5058195;28;1236;-72
2023/05/14 11:10:32;;;;;;;;;;;;;;;19.71;62.48;101691.97;5062172;28;1209;-72
2023/05/14 11:12:58;;;;;;;;;;;;;;;19.75;62.12;101687.19;5046592;28;1593;-73
2023/05/14 11:15:24;;;;;;;;;;;;;;;19.83;61.29;101692.44;5066198;28;1137;-73
2023/05/14 11:17:50;;;;;;;;;;;;;;;19.89;62.55;101683.91;5049179;28;1227;-73
2023/05/14 11:20:16;;;;;;;;;;;;;;;19.97;60.75;101681.28;5068063;28;1340;-73
2023/05/14 11:22:42;;;;;;;;;;;;;;;20.05;60.83;101681.25;5067645;28;1945;-72
2023/05/14 11:25:08;;;;;;;;;;;;;;;20.02;57.79;101684.22;5048551;28;1231;-76
2023/05/14 11:27:34;;;;;;;;;;;;;;;20.03;60.15;101679.78;5068270;28;1197;-73
2023/05/14 11:29:59;;;;;;;;;;;;;;;20.10;60.25;101671.03;5065902;28;1156;-75
2023/05/14 11:32:25;;;;;;;;;;;;;;;20.17;59.28;101672.00;5058280;28;1177;-72
2023/05/14 11:34:50;;;;;;;;;;;;;;;20.28;60.90;101677.94;5047549;28;1683;-73
2023/05/14 11:37:16;;;;;;;;;;;;;;;20.37;60.89;101666.38;5061699;28;1255;-75
2023/05/14 11:39:49;;;;;;;;;;;;;;;20.42;60.62;101664.06;5056801;28;1320;-73
2023/05/14 11:42:16;;;;;;;;;;;;;;;20.50;61.05;101658.81;5061155;28;1898;-74
2023/05/14 11:44:43;;;;;;;;;;;;;;;20.61;60.71;101652.34;5056456;28;1265;-72
2023/05/14 11:47:08;;;;;;;;;;;;;;;20.67;58.50;101652.47;5055541;28;1111;-73
2023/05/14 11:49:37;;;;;;;;;;;;;;;20.68;58.41;101654.09;5047562;28;1511;-72
2023/05/14 11:52:06;;;;;;;;;;;;;;;20.71;56.22;101646.88;5067237;28;1212;-73
2023/05/14 11:54:32;;;;;;;;;;;;;;;20.79;58.09;101649.47;5049739;28;1391;-72
2023/05/14 11:56:58;;;;;;;;;;;;;;;20.86;57.08;101653.84;5041551;28;1454;-72
2023/05/14 11:59:27;;;;;;;;;;;;;;;20.84;57.55;101653.22;5065707;28;1569;-72
2023/05/14 12:01:52;;;;;;;;;;;;;;;20.89;58.63;101650.91;5036088;28;1949;-74
2023/05/14 12:04:21;;;;;;;;;;;;;;;20.98;58.32;101643.75;5067355;28;1193;-72
2023/05/14 12:06:46;;;;;;;;;;;;;;;21.04;58.01;101643.03;5063104;28;1268;-72
2023/05/14 12:09:14;;;;;;;;;;;;;;;21.08;56.86;101644.34;5065403;28;1354;-73
2023/05/14 12:11:39;;;;;;;;;;;;;;;21.13;53.16;101639.38;5056282;28;1084;-73
2023/05/14 12:14:13;;;;;;;;;;;;;;;21.15;53.91;101637.38;5039824;28;1266;-73
2023/05/14 12:16:40;;;;;;;;;;;;;;;21.20;54.94;101632.41;5044169;28;1546;-72
2023/05/14 12:19:07;;;;;;;;;;;;;;;21.26;56.53;101635.34;5065029;28;1237;-72
2023/05/14 12:21:33;;;;;;;;;;;;;;;21.23;53.73;101630.44;5062574;28;1961;-72
2023/05/14 12:23:58;;;;;;;;;;;;;;;21.16;54.53;101639.03;5058769;28;1225;-75
2023/05/14 12:26:24;;;;;;;;;;;;;;;21.18;55.65;101629.13;5058519;28;1091;-72
2023/05/14 12:28:55;;;;;;;;;;;;;;;21.18;54.67;101623.84;5039260;28;1345;-72
2023/05/14 12:31:26;;;;;;;;;;;;;;;21.18;55.43;101626.50;5064669;28;1463;-72
2023/05/14 12:33:51;;;;;;;;;;;;;;;21.23;53.58;101630.44;5046805;28;1357;-72
2023/05/14 12:36:17;;;;;;;;;;;;;;;21.17;54.53;101622.22;5041907;28;1335;-73
2023/05/14 12:38:42;;;;;;;;;;;;;;;21.08;51.65;101627.72;5059680;28;1278;-74
2023/05/14 12:41:07;;;;;;;;;;;;;;;20.98;52.11;101627.91;5058830;28;1959;-73